Aberdeen Regional Airport
KABR : rendu visible

Aérodrome :











RETROUVEZ-NOUS SUR...

 
LOGIN :

S'inscrire | Disclaimer

   EN    FR    IT 

 









Légende :    VFR   VFR Marginal   IFR   IFR Intensif   IFR Très Intensif
Visi : 
Plafond : 
>= 8 km
>= 3000ft
5 à 8 km
1000 à 3000 ft
1500m à 5 km
500 à 1000 ft
800 à 1500m
200 à 500 ft
< 800m
< 200 ft
Symboles :   Orages  Brouillard  Fortes neiges  Fortes précipitations  Vent > 20 kt






- Altitude de l'aérodrome : 1302 ft
- Code IATA : ABR


KABR - Aberdeen Regional

DERNIER METAR :
  • 121753Z AUTO 17021G28KT 10SM CLR M06/M11 A3004 RMK AO2 PK WND 18033/1705 SLP201 T10561106 11050 21150 56051

METARs EXPIRÉS :
  • 121653Z AUTO 17016G32KT 10SM CLR M07/M12 A3006 RMK AO2 PK WND 16035/1641 SLP209 T10671122
  • 121553Z AUTO 16024G31KT 10SM CLR M09/M13 A3012 RMK AO2 PK WND 15031/1551 PRESFR SLP229 T10891133

TAF KABR
Valide du 12 à 18h jusqu'au 13 à 18h UTC


121723Z 1218/1318 17020G30KT P6SM SCT200
FM130800 VRB03KT P6SM VCSH OVC060
FM131400 33006KT 4SM -SN OVC015
FM131700 34013KT P6SM OVC020



MET'MAP, la Météo Aéronautique d'un coup d'oeil ! - Copyright ORBIFLY Décembre 2007 - Disclaimer

ORBIFLY MET'MAP TEAM :

Programmation & Développement : Alexandra Zaïnal
Conception & Développement : Baudouin d'Aumeries
Co-Programmation & Développement : Marc-Olivier Méhu
Soutien technique & logistique : Manuel Goepfert

Contact : metmap@orbifly.com




SOURCES & CREDITS :

   NOAA       Earth
Advisory